createdAt,value
2019-04-30T00:00:50.366Z,8.95
2019-04-30T00:03:27.103Z,8.90
2019-04-30T00:05:57.609Z,8.90
2019-04-30T00:08:30.207Z,9.38
2019-04-30T00:11:01.060Z,8.35
2019-04-30T00:13:31.370Z,8.58
2019-04-30T00:16:01.821Z,8.80
2019-04-30T00:18:38.210Z,9.53
2019-04-30T00:21:05.485Z,9.40
2019-04-30T00:23:36.088Z,9.68
2019-04-30T00:26:10.347Z,9.53
2019-04-30T00:28:39.446Z,10.25
2019-04-30T00:31:11.448Z,9.83
2019-04-30T00:33:41.788Z,10.45
2019-04-30T00:36:12.070Z,10.70
2019-04-30T00:38:42.348Z,10.75
2019-04-30T00:41:12.646Z,10.53
2019-04-30T00:43:49.301Z,10.13
2019-04-30T00:46:17.331Z,11.48
2019-04-30T00:48:46.847Z,10.78
2019-04-30T00:51:21.046Z,11.73
2019-04-30T00:53:51.168Z,12.20
2019-04-30T00:56:26.464Z,11.68
2019-04-30T00:58:52.934Z,12.05
2019-04-30T01:01:25.292Z,12.10
2019-04-30T01:04:05.055Z,12.88
2019-04-30T01:06:36.983Z,12.75
2019-04-30T01:09:08.712Z,12.78
2019-04-30T01:11:44.244Z,12.50
2019-04-30T01:14:11.829Z,13.32
2019-04-30T01:16:42.042Z,13.60
2019-04-30T01:19:26.513Z,13.28
2019-04-30T01:21:47.101Z,13.72
2019-04-30T01:24:16.170Z,13.78
2019-04-30T01:26:46.394Z,13.70
2019-04-30T01:29:16.640Z,13.90
2019-04-30T01:31:48.687Z,14.38
2019-04-30T01:34:19.618Z,14.30
2019-04-30T01:36:52.172Z,14.73
2019-04-30T01:39:23.638Z,14.98
2019-04-30T01:41:56.010Z,14.65
2019-04-30T01:44:26.206Z,15.15
2019-04-30T01:46:56.414Z,16.23
2019-04-30T01:49:27.189Z,14.13
2019-04-30T01:52:00.965Z,15.48
2019-04-30T01:54:31.405Z,15.30
2019-04-30T01:57:03.379Z,15.88
2019-04-30T01:59:52.477Z,16.02
2019-04-30T02:02:24.656Z,14.68
2019-04-30T02:04:54.842Z,16.23
2019-04-30T02:07:25.450Z,17.60
2019-04-30T02:09:55.666Z,18.02
2019-04-30T02:12:25.958Z,17.12
2019-04-30T02:14:56.166Z,16.55
2019-04-30T02:17:26.837Z,16.93
2019-04-30T02:19:59.066Z,18.25
2019-04-30T02:22:31.221Z,17.70
2019-04-30T02:25:00.981Z,15.70
2019-04-30T02:27:31.212Z,17.85
2019-04-30T02:30:02.635Z,19.32
2019-04-30T02:32:33.363Z,19.37
2019-04-30T02:35:23.137Z,17.37
2019-04-30T02:38:09.844Z,17.87
2019-04-30T02:40:42.537Z,17.40
2019-04-30T02:43:12.311Z,18.87
2019-04-30T02:45:42.553Z,17.92
2019-04-30T02:48:12.850Z,17.40
2019-04-30T02:50:43.143Z,18.50
2019-04-30T02:53:51.532Z,19.12
2019-04-30T02:56:26.594Z,19.92
2019-04-30T02:58:56.486Z,19.75
2019-04-30T03:01:26.739Z,20.50
2019-04-30T03:03:59.554Z,21.30
2019-04-30T03:06:30.335Z,18.00
2019-04-30T03:09:01.329Z,20.72
2019-04-30T03:11:33.416Z,18.15
2019-04-30T03:14:03.992Z,17.00
2019-04-30T03:16:53.161Z,17.32
2019-04-30T03:19:37.421Z,17.95
2019-04-30T03:22:12.750Z,15.45
2019-04-30T03:24:43.198Z,15.70
2019-04-30T03:27:13.415Z,15.37
2019-04-30T03:29:43.625Z,14.38
2019-04-30T03:32:14.493Z,16.02
2019-04-30T03:34:44.991Z,15.23
2019-04-30T03:37:15.264Z,15.53
2019-04-30T03:39:45.549Z,15.85
2019-04-30T03:42:15.743Z,16.07
2019-04-30T03:44:45.976Z,15.88
2019-04-30T03:47:16.175Z,15.63
2019-04-30T03:49:46.386Z,16.45
2019-04-30T03:52:19.721Z,15.83
2019-04-30T03:54:50.296Z,16.70
2019-04-30T03:57:20.757Z,16.50
2019-04-30T03:59:51.098Z,17.98
2019-04-30T04:02:23.019Z,17.52
2019-04-30T04:04:54.978Z,16.95
2019-04-30T04:07:26.879Z,18.10
2019-04-30T04:09:59.759Z,17.92
2019-04-30T04:12:50.044Z,16.67
2019-04-30T04:15:20.334Z,17.67
2019-04-30T04:17:50.645Z,17.80
2019-04-30T04:20:20.899Z,17.98
2019-04-30T04:22:51.158Z,18.25
2019-04-30T04:25:21.375Z,17.95
2019-04-30T04:28:10.202Z,18.50
2019-04-30T04:30:42.975Z,19.70
2019-04-30T04:33:12.591Z,20.70
2019-04-30T04:35:42.802Z,19.60
2019-04-30T04:38:13.007Z,20.05
2019-04-30T04:40:43.607Z,18.10
2019-04-30T04:43:13.860Z,17.55
2019-04-30T04:45:44.201Z,17.85
2019-04-30T04:48:14.450Z,16.50
2019-04-30T04:50:44.662Z,17.23
2019-04-30T04:53:14.913Z,17.60
2019-04-30T04:55:45.310Z,17.15
2019-04-30T04:58:15.564Z,17.77
2019-04-30T05:00:45.755Z,16.73
2019-04-30T05:03:32.717Z,16.97
2019-04-30T05:06:02.994Z,16.15
2019-04-30T05:08:33.252Z,15.70
2019-04-30T05:11:03.468Z,17.23
2019-04-30T05:13:34.760Z,17.70
2019-04-30T05:16:05.372Z,17.90
2019-04-30T05:18:35.614Z,19.35
2019-04-30T05:21:05.910Z,16.48
2019-04-30T05:23:36.254Z,17.35
2019-04-30T05:26:06.541Z,16.67
2019-04-30T05:28:36.741Z,16.65
2019-04-30T05:31:08.718Z,16.23
2019-04-30T05:33:39.136Z,16.05
2019-04-30T05:36:09.466Z,17.20
2019-04-30T05:38:39.738Z,18.48
2019-04-30T05:41:09.961Z,18.02
2019-04-30T05:43:50.069Z,18.20
2019-04-30T05:46:20.288Z,18.40
2019-04-30T05:48:50.508Z,16.73
2019-04-30T05:51:21.409Z,17.45
2019-04-30T05:53:51.735Z,18.50
2019-04-30T05:56:21.953Z,16.70
2019-04-30T05:58:54.831Z,16.48
2019-04-30T06:01:25.054Z,17.50
2019-04-30T06:03:55.287Z,15.35
2019-04-30T06:06:25.506Z,15.80
2019-04-30T06:09:13.047Z,15.68
2019-04-30T06:11:54.711Z,16.70
2019-04-30T06:14:32.518Z,16.25
2019-04-30T06:17:13.451Z,16.25
2019-04-30T06:19:43.635Z,15.85
2019-04-30T06:22:13.955Z,16.07
2019-04-30T06:24:44.240Z,15.83
2019-04-30T06:27:14.479Z,14.98
2019-04-30T06:29:44.831Z,16.02
2019-04-30T06:32:15.046Z,17.10
2019-04-30T06:34:45.331Z,16.73
2019-04-30T06:37:15.539Z,16.02
2019-04-30T06:39:45.730Z,18.25
2019-04-30T06:42:16.185Z,17.23
2019-04-30T06:44:46.375Z,17.73
2019-04-30T06:47:18.770Z,17.95
2019-04-30T06:49:48.915Z,17.15
2019-04-30T06:52:22.983Z,17.87
2019-04-30T06:54:51.148Z,19.40
2019-04-30T06:57:23.226Z,21.33
2019-04-30T06:59:53.439Z,21.93
2019-04-30T07:02:23.758Z,19.40
2019-04-30T07:04:54.036Z,20.88
2019-04-30T07:07:36.374Z,21.23
2019-04-30T07:10:10.173Z,20.68
2019-04-30T07:12:40.638Z,21.40
2019-04-30T07:15:13.572Z,22.13
2019-04-30T07:17:43.661Z,22.58
2019-04-30T07:20:14.014Z,23.07
2019-04-30T07:25:16.122Z,24.37
2019-04-30T07:27:46.324Z,22.73
2019-04-30T07:30:16.563Z,22.62
2019-04-30T07:32:48.790Z,24.18
2019-04-30T07:35:19.522Z,22.80
2019-04-30T07:37:54.569Z,24.43
2019-04-30T07:40:31.359Z,23.38
2019-04-30T07:43:21.981Z,25.23
2019-04-30T07:45:52.186Z,26.57
2019-04-30T07:48:26.454Z,24.65
2019-04-30T07:51:00.487Z,24.87
2019-04-30T07:53:49.643Z,25.32
2019-04-30T07:56:28.216Z,25.52
2019-04-30T07:59:39.646Z,24.95
2019-04-30T08:02:14.652Z,24.07
2019-04-30T08:04:50.933Z,21.57
2019-04-30T08:07:20.744Z,23.70
2019-04-30T08:09:36.939Z,24.05
2019-04-30T08:09:50.998Z,16.42
2019-04-30T08:12:29.717Z,23.73
2019-04-30T08:14:53.183Z,23.20
2019-04-30T08:17:23.418Z,23.55
2019-04-30T08:19:53.619Z,23.70
2019-04-30T08:22:40.836Z,24.43
2019-04-30T08:25:13.226Z,24.82
2019-04-30T08:27:43.545Z,24.02
2019-04-30T08:30:23.871Z,23.10
2019-04-30T08:32:45.772Z,22.95
2019-04-30T08:35:19.703Z,23.50
2019-04-30T08:37:50.100Z,22.60
2019-04-30T08:40:20.510Z,23.18
2019-04-30T08:42:52.196Z,21.93
2019-04-30T08:45:23.402Z,22.32
2019-04-30T08:47:53.660Z,22.00
2019-04-30T08:50:24.017Z,23.25
2019-04-30T08:52:54.552Z,24.60
2019-04-30T08:55:24.840Z,22.35
2019-04-30T08:58:07.582Z,22.50
2019-04-30T09:00:27.271Z,25.10
2019-04-30T09:02:59.397Z,22.65
2019-04-30T09:05:31.089Z,21.33
2019-04-30T09:08:01.283Z,23.10
2019-04-30T09:10:32.506Z,22.85
2019-04-30T09:13:23.815Z,23.22
2019-04-30T09:15:54.094Z,22.70
2019-04-30T09:18:24.377Z,36.15
2019-04-30T09:21:03.435Z,26.55
2019-04-30T09:23:34.310Z,23.77
2019-04-30T09:25:58.647Z,23.10
2019-04-30T09:28:29.468Z,21.95
2019-04-30T09:30:59.817Z,22.90
2019-04-30T09:33:30.021Z,21.82
2019-04-30T09:36:00.362Z,22.70
2019-04-30T09:38:30.697Z,23.17
2019-04-30T09:41:01.055Z,24.10
2019-04-30T09:43:31.310Z,22.80
2019-04-30T09:46:01.652Z,22.67
2019-04-30T09:48:32.067Z,21.65
2019-04-30T09:51:02.703Z,22.80
2019-04-30T09:53:42.405Z,21.68
2019-04-30T09:56:12.622Z,22.35
2019-04-30T09:58:42.838Z,24.40
2019-04-30T10:01:13.127Z,23.30
2019-04-30T10:03:43.667Z,24.15
2019-04-30T10:06:14.150Z,22.87
2019-04-30T10:08:48.509Z,22.32
2019-04-30T10:11:20.914Z,20.37
2019-04-30T10:13:51.135Z,21.35
2019-04-30T10:16:26.101Z,21.30
2019-04-30T10:18:56.356Z,19.52
2019-04-30T10:21:26.667Z,19.70
2019-04-30T10:24:11.841Z,20.45
2019-04-30T10:26:35.187Z,20.77
2019-04-30T10:29:05.802Z,20.17
2019-04-30T10:31:36.094Z,18.42
2019-04-30T10:34:06.591Z,19.65
2019-04-30T10:36:39.062Z,19.93
2019-04-30T10:39:12.172Z,19.15
2019-04-30T10:41:42.623Z,19.65
2019-04-30T10:44:12.908Z,19.85
2019-04-30T10:46:43.120Z,21.07
2019-04-30T10:49:13.384Z,19.87
2019-04-30T10:51:43.957Z,28.43
2019-04-30T10:54:24.128Z,21.57
2019-04-30T10:56:51.172Z,18.70
2019-04-30T10:59:20.620Z,20.55
2019-04-30T11:01:50.962Z,21.27
2019-04-30T11:04:22.320Z,21.25
2019-04-30T11:09:21.969Z,21.97
2019-04-30T11:11:52.243Z,21.35
2019-04-30T11:14:22.529Z,21.65
2019-04-30T11:16:53.039Z,20.23
2019-04-30T11:19:23.737Z,20.75
2019-04-30T11:21:54.301Z,21.55
2019-04-30T11:24:35.941Z,20.92
2019-04-30T11:26:59.985Z,19.75
2019-04-30T11:29:32.898Z,19.27
2019-04-30T11:32:06.012Z,18.52
2019-04-30T11:34:36.774Z,19.75
2019-04-30T11:37:06.986Z,19.77
2019-04-30T11:39:37.229Z,19.37
2019-04-30T11:42:07.474Z,18.90
2019-04-30T11:44:43.167Z,18.48
2019-04-30T11:47:24.710Z,19.57
2019-04-30T11:49:57.985Z,18.73
2019-04-30T11:52:28.503Z,18.57
2019-04-30T11:55:09.878Z,19.05
2019-04-30T11:57:49.492Z,19.57
2019-04-30T12:00:21.484Z,20.45
2019-04-30T12:02:53.008Z,18.35
2019-04-30T12:05:23.447Z,18.37
2019-04-30T12:08:09.451Z,18.67
2019-04-30T12:10:40.975Z,18.32
2019-04-30T12:13:27.138Z,17.77
2019-04-30T12:16:15.546Z,18.65
2019-04-30T12:18:45.771Z,19.37
2019-04-30T12:21:15.980Z,18.82
2019-04-30T12:23:46.371Z,18.87
2019-04-30T12:26:16.554Z,18.90
2019-04-30T12:28:46.854Z,21.05
2019-04-30T12:31:18.716Z,20.48
2019-04-30T12:33:49.127Z,18.98
2019-04-30T12:36:19.597Z,17.90
2019-04-30T12:38:49.817Z,18.48
2019-04-30T12:41:20.014Z,20.62
2019-04-30T12:43:50.205Z,18.27
2019-04-30T12:46:32.523Z,17.95
2019-04-30T12:49:04.847Z,17.62
2019-04-30T12:51:46.363Z,18.52
2019-04-30T12:57:11.175Z,16.42
2019-04-30T13:02:53.307Z,18.40
2019-04-30T13:05:23.734Z,18.57
2019-04-30T13:07:56.231Z,17.27
2019-04-30T13:10:28.801Z,17.50
2019-04-30T13:13:01.507Z,17.27
2019-04-30T13:15:40.708Z,17.30
2019-04-30T13:18:10.900Z,16.60
2019-04-30T13:20:41.246Z,20.52
2019-04-30T13:23:11.554Z,21.33
2019-04-30T13:25:50.796Z,19.40
2019-04-30T13:28:15.516Z,18.23
2019-04-30T13:30:45.726Z,17.60
2019-04-30T13:33:33.562Z,18.70
2019-04-30T13:36:03.850Z,18.70
2019-04-30T13:38:51.697Z,18.42
2019-04-30T13:41:37.892Z,18.50
2019-04-30T13:44:09.727Z,18.35
2019-04-30T13:47:19.502Z,19.62
2019-04-30T13:49:52.618Z,18.50
2019-04-30T13:52:25.822Z,19.02
2019-04-30T13:54:56.010Z,20.00
2019-04-30T13:57:30.239Z,17.60
2019-04-30T14:00:00.437Z,19.62
2019-04-30T14:02:33.888Z,18.92
2019-04-30T14:05:15.111Z,19.30
2019-04-30T14:08:05.249Z,19.75
2019-04-30T14:10:36.813Z,18.67
2019-04-30T14:13:08.202Z,19.45
2019-04-30T14:15:38.566Z,20.75
2019-04-30T14:18:09.412Z,20.55
2019-04-30T14:20:39.780Z,19.80
2019-04-30T14:23:10.735Z,20.00
2019-04-30T14:25:55.931Z,21.05
2019-04-30T14:28:16.222Z,19.85
2019-04-30T14:30:49.416Z,20.25
2019-04-30T14:33:26.819Z,20.05
2019-04-30T14:36:00.842Z,19.95
2019-04-30T14:38:32.459Z,19.05
2019-04-30T14:41:04.031Z,20.40
2019-04-30T14:43:51.586Z,20.60
2019-04-30T14:46:35.952Z,19.50
2019-04-30T14:49:10.761Z,19.35
2019-04-30T14:51:40.698Z,19.27
2019-04-30T14:54:14.142Z,18.73
2019-04-30T14:56:56.203Z,22.42
2019-04-30T14:59:49.336Z,20.88
2019-04-30T15:02:21.192Z,22.35
2019-04-30T15:05:14.783Z,22.10
2019-04-30T15:07:45.018Z,23.40
2019-04-30T15:10:15.217Z,22.55
2019-04-30T15:12:45.435Z,21.02
2019-04-30T15:15:24.282Z,20.27
2019-04-30T15:18:19.059Z,21.35
2019-04-30T15:20:59.351Z,21.87
2019-04-30T15:23:56.416Z,21.80
2019-04-30T15:26:24.561Z,20.60
2019-04-30T15:28:52.104Z,20.45
2019-04-30T15:31:22.496Z,19.10
2019-04-30T15:34:02.683Z,19.83
2019-04-30T15:36:26.974Z,19.10
2019-04-30T15:39:02.473Z,18.85
2019-04-30T15:41:37.197Z,19.73
2019-04-30T15:44:07.666Z,17.80
2019-04-30T15:46:37.915Z,17.37
2019-04-30T15:51:42.592Z,16.55
2019-04-30T15:54:12.805Z,15.05
2019-04-30T15:56:49.495Z,16.20
2019-04-30T15:59:21.327Z,16.65
2019-04-30T16:01:56.091Z,17.65
2019-04-30T16:04:33.655Z,17.65
2019-04-30T16:07:03.946Z,17.42
2019-04-30T16:09:54.198Z,17.42
2019-04-30T16:12:28.613Z,17.07
2019-04-30T16:14:59.106Z,17.07
2019-04-30T16:17:29.436Z,17.45
2019-04-30T16:19:59.663Z,18.55
2019-04-30T16:22:40.910Z,17.10
2019-04-30T16:25:12.315Z,18.12
2019-04-30T16:27:42.502Z,17.02
2019-04-30T16:30:14.104Z,18.82
2019-04-30T16:32:44.562Z,17.55
2019-04-30T16:35:14.895Z,23.87
2019-04-30T16:37:45.162Z,20.10
2019-04-30T16:40:19.965Z,18.30
2019-04-30T16:42:56.130Z,16.32
2019-04-30T16:45:26.350Z,16.17
2019-04-30T16:47:56.541Z,15.80
2019-04-30T16:50:26.752Z,16.42
2019-04-30T16:52:58.024Z,16.45
2019-04-30T16:55:28.563Z,16.70
2019-04-30T16:57:58.780Z,15.53
2019-04-30T17:00:30.802Z,16.17
2019-04-30T17:03:10.013Z,17.02
2019-04-30T17:05:41.845Z,16.60
2019-04-30T17:08:29.118Z,15.15
2019-04-30T17:11:02.915Z,15.68
2019-04-30T17:13:34.781Z,19.62
2019-04-30T17:16:12.608Z,16.82
2019-04-30T17:18:42.885Z,16.57
2019-04-30T17:21:13.108Z,15.50
2019-04-30T17:23:43.329Z,16.52
2019-04-30T17:26:13.554Z,15.68
2019-04-30T17:28:55.158Z,16.30
2019-04-30T17:31:28.095Z,15.03
2019-04-30T17:33:58.419Z,16.00
2019-04-30T17:36:29.786Z,14.63
2019-04-30T17:39:00.202Z,16.48
2019-04-30T17:41:30.428Z,16.82
2019-04-30T17:44:00.702Z,16.40
2019-04-30T17:46:30.966Z,15.85
2019-04-30T17:49:01.196Z,16.23
2019-04-30T17:51:31.461Z,19.45
2019-04-30T17:54:12.437Z,15.28
2019-04-30T17:56:44.289Z,16.45
2019-04-30T17:59:15.619Z,16.12
2019-04-30T18:01:49.497Z,16.20
2019-04-30T18:04:39.855Z,16.75
2019-04-30T18:07:10.110Z,16.40
2019-04-30T18:09:40.421Z,17.48
2019-04-30T18:12:10.698Z,16.32
2019-04-30T18:14:43.795Z,16.07
2019-04-30T18:17:13.999Z,16.70
2019-04-30T18:19:46.771Z,15.50
2019-04-30T18:22:33.602Z,14.65
2019-04-30T18:25:23.107Z,14.80
2019-04-30T18:27:59.524Z,14.70
2019-04-30T18:30:32.461Z,14.43
2019-04-30T18:33:02.665Z,16.87
2019-04-30T18:35:34.722Z,15.90
2019-04-30T18:38:04.950Z,15.98
2019-04-30T18:40:35.422Z,16.20
2019-04-30T18:43:05.611Z,15.57
2019-04-30T18:45:35.899Z,16.65
2019-04-30T18:48:06.090Z,15.80
2019-04-30T18:50:37.285Z,16.35
2019-04-30T18:53:10.505Z,17.52
2019-04-30T18:56:14.691Z,16.10
2019-04-30T19:01:13.608Z,16.23
2019-04-30T19:03:43.818Z,16.27
2019-04-30T19:06:23.035Z,16.32
2019-04-30T19:08:55.371Z,16.52
2019-04-30T19:11:28.918Z,17.50
2019-04-30T19:14:19.359Z,17.30
2019-04-30T19:19:30.353Z,21.07
2019-04-30T19:22:00.567Z,18.15
2019-04-30T19:24:30.754Z,17.92
2019-04-30T19:27:01.010Z,17.12
2019-04-30T19:29:31.682Z,17.32
2019-04-30T19:32:01.922Z,18.50
2019-04-30T19:34:32.241Z,18.07
2019-04-30T19:37:02.455Z,18.30
2019-04-30T19:39:32.663Z,17.57
2019-04-30T19:42:03.375Z,18.27
2019-04-30T19:44:33.869Z,18.73
2019-04-30T19:47:04.134Z,13.60
2019-04-30T19:49:34.604Z,18.48
2019-04-30T19:52:08.389Z,18.30
2019-04-30T19:54:39.166Z,18.75
2019-04-30T19:57:10.281Z,19.20
2019-04-30T19:59:40.804Z,20.50
2019-04-30T20:02:11.015Z,21.27
2019-04-30T20:04:42.297Z,20.72
2019-04-30T20:09:43.222Z,20.10
2019-04-30T20:12:13.762Z,20.57
2019-04-30T20:14:44.110Z,22.10
2019-04-30T20:17:14.340Z,21.10
2019-04-30T20:19:44.586Z,20.50
2019-04-30T20:22:14.985Z,22.27
2019-04-30T20:24:45.382Z,21.77
2019-04-30T20:27:15.978Z,21.30
2019-04-30T20:29:46.191Z,21.68
2019-04-30T20:32:16.481Z,21.20
2019-04-30T20:34:46.675Z,21.00
2019-04-30T20:37:17.061Z,20.80
2019-04-30T20:39:50.498Z,21.73
2019-04-30T20:42:20.714Z,20.88
2019-04-30T20:44:50.898Z,22.02
2019-04-30T20:47:21.292Z,22.73
2019-04-30T20:49:51.575Z,22.90
2019-04-30T20:52:21.790Z,23.42
2019-04-30T20:54:51.974Z,21.77
2019-04-30T20:57:22.195Z,22.00
2019-04-30T20:59:52.479Z,22.65
2019-04-30T21:02:22.683Z,22.02
2019-04-30T21:04:52.890Z,22.45
2019-04-30T21:07:23.108Z,22.95
2019-04-30T21:09:53.312Z,21.90
2019-04-30T21:12:23.590Z,22.22
2019-04-30T21:14:53.828Z,23.27
2019-04-30T21:17:24.158Z,23.00
2019-04-30T21:19:54.681Z,23.20
2019-04-30T21:22:29.476Z,23.42
2019-04-30T21:25:01.636Z,22.60
2019-04-30T21:27:31.866Z,23.30
2019-04-30T21:30:02.089Z,23.35
2019-04-30T21:32:51.019Z,23.30
2019-04-30T21:35:35.914Z,23.60
2019-04-30T21:38:06.214Z,24.82
2019-04-30T21:40:36.764Z,25.35
2019-04-30T21:43:07.103Z,24.55
2019-04-30T21:45:39.891Z,24.65
2019-04-30T21:48:10.317Z,24.10
2019-04-30T21:50:41.009Z,24.27
2019-04-30T21:53:11.207Z,24.23
2019-04-30T21:55:41.448Z,22.80
2019-04-30T21:58:11.640Z,21.62
2019-04-30T22:00:44.002Z,22.50
2019-04-30T22:03:15.803Z,22.77
2019-04-30T22:05:46.354Z,23.12
2019-04-30T22:08:18.806Z,24.45
2019-04-30T22:10:49.003Z,22.85
2019-04-30T22:13:19.193Z,23.98
2019-04-30T22:15:49.445Z,23.65
2019-04-30T22:18:19.960Z,25.95
2019-04-30T22:20:50.365Z,23.27
2019-04-30T22:23:20.545Z,18.67
2019-04-30T22:25:50.766Z,22.50
2019-04-30T22:28:21.023Z,23.40
2019-04-30T22:30:51.235Z,23.55
2019-04-30T22:33:21.439Z,23.25
2019-04-30T22:35:56.007Z,24.80
2019-04-30T22:38:33.623Z,24.52
2019-04-30T22:41:03.927Z,23.87
2019-04-30T22:43:34.186Z,23.30
2019-04-30T22:46:09.745Z,23.95
2019-04-30T22:48:40.232Z,22.52
2019-04-30T22:51:10.466Z,24.37
2019-04-30T22:53:40.659Z,23.87
2019-04-30T22:56:10.864Z,23.52
2019-04-30T23:01:16.131Z,22.93
2019-04-30T23:03:46.553Z,23.25
2019-04-30T23:06:17.120Z,24.12
2019-04-30T23:08:47.378Z,24.30
2019-04-30T23:11:17.586Z,24.25
2019-04-30T23:13:47.800Z,23.18
2019-04-30T23:16:17.993Z,23.57
2019-04-30T23:18:48.239Z,25.40
2019-04-30T23:21:18.518Z,24.03
2019-04-30T23:23:48.770Z,25.17
2019-04-30T23:26:18.990Z,24.80
2019-04-30T23:29:07.234Z,26.33
2019-04-30T23:31:37.454Z,24.60
2019-04-30T23:34:17.367Z,24.35
2019-04-30T23:36:39.593Z,24.25
2019-04-30T23:39:10.324Z,23.45
2019-04-30T23:41:40.539Z,25.20
2019-04-30T23:44:11.233Z,22.82
2019-04-30T23:46:41.472Z,24.07
2019-04-30T23:49:11.690Z,23.83
2019-04-30T23:51:42.352Z,24.27
2019-04-30T23:54:12.646Z,22.70
2019-04-30T23:56:42.852Z,24.30
2019-04-30T23:59:13.107Z,23.62
